sensor_id;sensor_type;location;lat;lon;timestamp;pressure;altitude;pressure_sealevel;temperature;humidity
19624;BME280;9959;49.798;9.928;2022-08-21T00:00:29;99583.06;;;17.22;100.00
19624;BME280;9959;49.798;9.928;2022-08-21T00:03:02;99573.47;;;17.11;100.00
19624;BME280;9959;49.798;9.928;2022-08-21T00:05:32;99568.13;;;17.11;100.00
19624;BME280;9959;49.798;9.928;2022-08-21T00:08:00;99569.72;;;17.07;100.00
19624;BME280;9959;49.798;9.928;2022-08-21T00:10:28;99570.25;;;16.98;100.00
19624;BME280;9959;49.798;9.928;2022-08-21T00:12:56;99568.66;;;16.97;100.00
19624;BME280;9959;49.798;9.928;2022-08-21T00:15:28;99574.75;;;16.88;100.00
19624;BME280;9959;49.798;9.928;2022-08-21T00:17:57;99564.06;;;16.82;100.00
19624;BME280;9959;49.798;9.928;2022-08-21T00:20:25;99563.53;;;16.80;100.00
19624;BME280;9959;49.798;9.928;2022-08-21T00:22:53;99567.53;;;16.83;100.00
19624;BME280;9959;49.798;9.928;2022-08-21T00:25:23;99559.28;;;16.85;100.00
19624;BME280;9959;49.798;9.928;2022-08-21T00:27:52;99559.53;;;16.73;100.00
19624;BME280;9959;49.798;9.928;2022-08-21T00:30:22;99553.66;;;16.71;100.00
19624;BME280;9959;49.798;9.928;2022-08-21T00:32:53;99559.78;;;16.71;100.00
19624;BME280;9959;49.798;9.928;2022-08-21T00:35:24;99561.09;;;16.69;100.00
19624;BME280;9959;49.798;9.928;2022-08-21T00:37:53;99552.06;;;16.70;nan
19624;BME280;9959;49.798;9.928;2022-08-21T00:40:31;99560.06;;;16.70;83.60
19624;BME280;9959;49.798;9.928;2022-08-21T00:43:00;99558.94;;;16.60;82.87
19624;BME280;9959;49.798;9.928;2022-08-21T00:45:29;99555.22;;;16.61;100.00
19624;BME280;9959;49.798;9.928;2022-08-21T00:48:01;99557.88;;;16.51;100.00
19624;BME280;9959;49.798;9.928;2022-08-21T00:50:31;99554.69;;;16.54;100.00
19624;BME280;9959;49.798;9.928;2022-08-21T00:53:00;99552.53;;;16.51;nan
19624;BME280;9959;49.798;9.928;2022-08-21T00:55:30;99548.81;;;16.47;100.00
19624;BME280;9959;49.798;9.928;2022-08-21T00:58:02;99550.13;;;16.44;100.00
19624;BME280;9959;49.798;9.928;2022-08-21T01:00:32;99549.84;;;16.41;100.00
19624;BME280;9959;49.798;9.928;2022-08-21T01:03:06;99549.59;;;16.42;100.00
19624;BME280;9959;49.798;9.928;2022-08-21T01:05:36;99551.44;;;16.42;100.00
19624;BME280;9959;49.798;9.928;2022-08-21T01:08:05;99557.84;;;16.41;nan
19624;BME280;9959;49.798;9.928;2022-08-21T01:10:34;99554.91;;;16.42;100.00
19624;BME280;9959;49.798;9.928;2022-08-21T01:13:05;99554.63;;;16.39;100.00
19624;BME280;9959;49.798;9.928;2022-08-21T01:15:36;99558.06;;;16.34;100.00
19624;BME280;9959;49.798;9.928;2022-08-21T01:18:07;99557.53;;;16.37;100.00
19624;BME280;9959;49.798;9.928;2022-08-21T01:20:41;99556.72;;;16.26;100.00
19624;BME280;9959;49.798;9.928;2022-08-21T01:23:13;99554.78;;;16.17;100.00
19624;BME280;9959;49.798;9.928;2022-08-21T01:25:41;99553.97;;;16.11;100.00
19624;BME280;9959;49.798;9.928;2022-08-21T01:28:12;99551.06;;;16.12;nan
19624;BME280;9959;49.798;9.928;2022-08-21T01:30:42;99551.53;;;16.04;100.00
19624;BME280;9959;49.798;9.928;2022-08-21T01:33:11;99556.34;;;16.07;100.00
19624;BME280;9959;49.798;9.928;2022-08-21T01:35:38;99561.28;;;15.88;100.00
19624;BME280;9959;49.798;9.928;2022-08-21T01:38:06;99554.03;;;15.78;100.00
19624;BME280;9959;49.798;9.928;2022-08-21T01:40:36;99554.34;;;15.87;100.00
19624;BME280;9959;49.798;9.928;2022-08-21T01:43:04;99555.34;;;15.76;100.00
19624;BME280;9959;49.798;9.928;2022-08-21T01:45:32;99562.25;;;15.77;100.00
19624;BME280;9959;49.798;9.928;2022-08-21T01:48:00;99554.78;;;15.74;100.00
19624;BME280;9959;49.798;9.928;2022-08-21T01:50:29;99554.78;;;15.74;100.00
19624;BME280;9959;49.798;9.928;2022-08-21T01:52:57;99556.13;;;15.76;100.00
19624;BME280;9959;49.798;9.928;2022-08-21T01:55:25;99552.34;;;15.67;100.00
19624;BME280;9959;49.798;9.928;2022-08-21T01:57:54;99549.09;;;15.60;100.00
19624;BME280;9959;49.798;9.928;2022-08-21T02:00:23;99550.19;;;15.64;100.00
19624;BME280;9959;49.798;9.928;2022-08-21T02:02:51;99553.94;;;15.63;100.00
19624;BME280;9959;49.798;9.928;2022-08-21T02:05:19;99553.13;;;15.63;87.80
19624;BME280;9959;49.798;9.928;2022-08-21T02:07:50;99545.97;;;15.63;82.10
19624;BME280;9959;49.798;9.928;2022-08-21T02:10:21;99548.56;;;15.58;100.00
19624;BME280;9959;49.798;9.928;2022-08-21T02:12:49;99549.94;;;15.60;83.49
19624;BME280;9959;49.798;9.928;2022-08-21T02:15:19;99536.84;;;15.54;100.00
19624;BME280;9959;49.798;9.928;2022-08-21T02:17:49;99541.38;;;15.53;82.06
19624;BME280;9959;49.798;9.928;2022-08-21T02:20:20;99547.72;;;15.47;nan
19624;BME280;9959;49.798;9.928;2022-08-21T02:22:49;99544.22;;;15.41;100.00
19624;BME280;9959;49.798;9.928;2022-08-21T02:25:18;99541.56;;;15.41;100.00
19624;BME280;9959;49.798;9.928;2022-08-21T02:27:47;99536.78;;;15.43;100.00
19624;BME280;9959;49.798;9.928;2022-08-21T02:30:20;99543.41;;;15.41;100.00
19624;BME280;9959;49.798;9.928;2022-08-21T02:32:48;99540.78;;;15.46;100.00
19624;BME280;9959;49.798;9.928;2022-08-21T02:35:17;99535.69;;;15.39;100.00
19624;BME280;9959;49.798;9.928;2022-08-21T02:37:47;99532.69;;;15.31;93.48
19624;BME280;9959;49.798;9.928;2022-08-21T02:40:17;99535.28;;;15.20;100.00
19624;BME280;9959;49.798;9.928;2022-08-21T02:42:46;99533.13;;;15.17;100.00
19624;BME280;9959;49.798;9.928;2022-08-21T02:45:14;99532.09;;;15.23;nan
19624;BME280;9959;49.798;9.928;2022-08-21T02:47:48;99540.41;;;15.32;100.00
19624;BME280;9959;49.798;9.928;2022-08-21T02:50:19;99532.88;;;15.19;100.00
19624;BME280;9959;49.798;9.928;2022-08-21T02:52:48;99529.44;;;15.23;100.00
19624;BME280;9959;49.798;9.928;2022-08-21T02:55:21;99538.94;;;15.14;100.00
19624;BME280;9959;49.798;9.928;2022-08-21T02:57:49;99529.66;;;15.17;100.00
19624;BME280;9959;49.798;9.928;2022-08-21T03:00:18;99531.06;;;15.24;100.00
19624;BME280;9959;49.798;9.928;2022-08-21T03:02:49;99525.66;;;15.14;100.00
19624;BME280;9959;49.798;9.928;2022-08-21T03:05:17;99533.88;;;15.13;nan
19624;BME280;9959;49.798;9.928;2022-08-21T03:07:46;99545.34;;;15.18;100.00
19624;BME280;9959;49.798;9.928;2022-08-21T03:10:15;99537.59;;;15.12;100.00
19624;BME280;9959;49.798;9.928;2022-08-21T03:12:43;99535.38;;;15.03;100.00
19624;BME280;9959;49.798;9.928;2022-08-21T03:15:14;99539.59;;;14.99;100.00
19624;BME280;9959;49.798;9.928;2022-08-21T03:17:44;99535.81;;;14.95;100.00
19624;BME280;9959;49.798;9.928;2022-08-21T03:20:15;99532.63;;;14.93;100.00
19624;BME280;9959;49.798;9.928;2022-08-21T03:22:43;99536.31;;;14.87;93.43
19624;BME280;9959;49.798;9.928;2022-08-21T03:25:25;99535.97;;;14.78;nan
19624;BME280;9959;49.798;9.928;2022-08-21T03:28:06;99542.41;;;14.87;100.00
19624;BME280;9959;49.798;9.928;2022-08-21T03:30:39;99538.03;;;14.76;100.00
19624;BME280;9959;49.798;9.928;2022-08-21T03:33:08;99542.25;;;14.72;100.00
19624;BME280;9959;49.798;9.928;2022-08-21T03:35:42;99544.41;;;14.75;100.00
19624;BME280;9959;49.798;9.928;2022-08-21T03:38:12;99538.03;;;14.76;100.00
19624;BME280;9959;49.798;9.928;2022-08-21T03:40:40;99543.09;;;14.78;100.00
19624;BME280;9959;49.798;9.928;2022-08-21T03:43:08;99549.13;;;14.68;100.00
19624;BME280;9959;49.798;9.928;2022-08-21T03:45:37;99538.78;;;14.71;100.00
19624;BME280;9959;49.798;9.928;2022-08-21T03:48:06;99539.13;;;14.75;100.00
19624;BME280;9959;49.798;9.928;2022-08-21T03:50:39;99547.81;;;14.70;100.00
19624;BME280;9959;49.798;9.928;2022-08-21T03:53:10;99544.66;;;14.73;100.00
19624;BME280;9959;49.798;9.928;2022-08-21T03:55:44;99550.19;;;14.72;100.00
19624;BME280;9959;49.798;9.928;2022-08-21T03:58:12;99546.22;;;14.69;100.00
19624;BME280;9959;49.798;9.928;2022-08-21T04:00:42;99554.66;;;14.66;100.00
19624;BME280;9959;49.798;9.928;2022-08-21T04:03:11;99557.16;;;14.56;100.00
19624;BME280;9959;49.798;9.928;2022-08-21T04:05:39;99562.69;;;14.49;100.00
19624;BME280;9959;49.798;9.928;2022-08-21T04:08:08;99567.66;;;14.46;100.00
19624;BME280;9959;49.798;9.928;2022-08-21T04:10:38;99555.91;;;14.36;100.00
19624;BME280;9959;49.798;9.928;2022-08-21T04:13:08;99556.56;;;14.27;100.00
19624;BME280;9959;49.798;9.928;2022-08-21T04:15:36;99568.72;;;14.22;100.00
19624;BME280;9959;49.798;9.928;2022-08-21T04:18:04;99572.88;;;14.18;100.00
19624;BME280;9959;49.798;9.928;2022-08-21T04:20:33;99580.06;;;14.18;100.00
19624;BME280;9959;49.798;9.928;2022-08-21T04:23:01;99575.88;;;14.22;100.00
19624;BME280;9959;49.798;9.928;2022-08-21T04:25:30;99584.53;;;14.17;82.09
19624;BME280;9959;49.798;9.928;2022-08-21T04:27:58;99586.16;;;14.18;100.00
19624;BME280;9959;49.798;9.928;2022-08-21T04:30:26;99589.66;;;14.24;100.00
19624;BME280;9959;49.798;9.928;2022-08-21T04:32:56;99595.75;;;14.25;100.00
19624;BME280;9959;49.798;9.928;2022-08-21T04:35:26;99600.78;;;14.21;100.00
19624;BME280;9959;49.798;9.928;2022-08-21T04:37:55;99607.19;;;14.25;100.00
19624;BME280;9959;49.798;9.928;2022-08-21T04:40:26;99602.94;;;14.24;100.00
19624;BME280;9959;49.798;9.928;2022-08-21T04:43:00;99606.88;;;14.21;100.00
19624;BME280;9959;49.798;9.928;2022-08-21T04:45:30;99617.16;;;14.18;nan
19624;BME280;9959;49.798;9.928;2022-08-21T04:48:00;99610.50;;;14.15;100.00
19624;BME280;9959;49.798;9.928;2022-08-21T04:50:36;99610.19;;;14.12;87.62
19624;BME280;9959;49.798;9.928;2022-08-21T04:53:09;99608.72;;;14.21;nan
19624;BME280;9959;49.798;9.928;2022-08-21T04:55:39;99620.22;;;14.27;100.00
19624;BME280;9959;49.798;9.928;2022-08-21T04:58:11;99620.38;;;14.20;100.00
19624;BME280;9959;49.798;9.928;2022-08-21T05:00:40;99615.56;;;14.17;100.00
19624;BME280;9959;49.798;9.928;2022-08-21T05:03:09;99623.03;;;14.20;100.00
19624;BME280;9959;49.798;9.928;2022-08-21T05:05:39;99625.44;;;14.21;100.00
19624;BME280;9959;49.798;9.928;2022-08-21T05:08:07;99625.44;;;14.21;100.00
19624;BME280;9959;49.798;9.928;2022-08-21T05:10:39;99631.72;;;14.15;100.00
19624;BME280;9959;49.798;9.928;2022-08-21T05:13:10;99624.47;;;14.28;nan
19624;BME280;9959;49.798;9.928;2022-08-21T05:15:39;99628.94;;;14.27;100.00
19624;BME280;9959;49.798;9.928;2022-08-21T05:18:08;99629.66;;;14.39;100.00
19624;BME280;9959;49.798;9.928;2022-08-21T05:20:36;99639.16;;;14.35;100.00
19624;BME280;9959;49.798;9.928;2022-08-21T05:23:07;99641.69;;;14.47;100.00
19624;BME280;9959;49.798;9.928;2022-08-21T05:25:35;99644.75;;;14.39;100.00
19624;BME280;9959;49.798;9.928;2022-08-21T05:28:04;99634.22;;;14.44;100.00
19624;BME280;9959;49.798;9.928;2022-08-21T05:30:34;99636.81;;;14.61;100.00
19624;BME280;9959;49.798;9.928;2022-08-21T05:33:04;99633.53;;;14.71;100.00
19624;BME280;9959;49.798;9.928;2022-08-21T05:35:33;99637.47;;;14.68;100.00
19624;BME280;9959;49.798;9.928;2022-08-21T05:38:01;99644.56;;;14.63;84.81
19624;BME280;9959;49.798;9.928;2022-08-21T05:40:30;99644.75;;;14.78;100.00
19624;BME280;9959;49.798;9.928;2022-08-21T05:42:59;99647.34;;;14.73;100.00
19624;BME280;9959;49.798;9.928;2022-08-21T05:45:30;99641.00;;;14.74;nan
19624;BME280;9959;49.798;9.928;2022-08-21T05:48:11;99650.19;;;14.88;100.00
19624;BME280;9959;49.798;9.928;2022-08-21T05:50:40;99650.72;;;14.90;100.00
19624;BME280;9959;49.798;9.928;2022-08-21T05:53:09;99657.72;;;14.97;100.00
19624;BME280;9959;49.798;9.928;2022-08-21T05:55:38;99654.00;;;14.98;nan
19624;BME280;9959;49.798;9.928;2022-08-21T05:58:11;99651.84;;;14.95;100.00
19624;BME280;9959;49.798;9.928;2022-08-21T06:00:39;99654.59;;;15.05;100.00
19624;BME280;9959;49.798;9.928;2022-08-21T06:03:12;99649.66;;;15.14;100.00
19624;BME280;9959;49.798;9.928;2022-08-21T06:05:42;99646.13;;;15.08;100.00
19624;BME280;9959;49.798;9.928;2022-08-21T06:08:09;99649.97;;;15.17;100.00
19624;BME280;9959;49.798;9.928;2022-08-21T06:10:38;99639.38;;;15.22;84.88
19624;BME280;9959;49.798;9.928;2022-08-21T06:13:06;99634.19;;;15.33;100.00
19624;BME280;9959;49.798;9.928;2022-08-21T06:15:34;99635.56;;;15.40;93.49
19624;BME280;9959;49.798;9.928;2022-08-21T06:18:02;99637.03;;;15.53;100.00
19624;BME280;9959;49.798;9.928;2022-08-21T06:20:32;99637.38;;;15.67;100.00
19624;BME280;9959;49.798;9.928;2022-08-21T06:23:00;99640.63;;;15.74;100.00
19624;BME280;9959;49.798;9.928;2022-08-21T06:25:29;99642.06;;;15.82;100.00
19624;BME280;9959;49.798;9.928;2022-08-21T06:28:01;99640.63;;;15.74;100.00
19624;BME280;9959;49.798;9.928;2022-08-21T06:30:29;99639.22;;;15.94;100.00
19624;BME280;9959;49.798;9.928;2022-08-21T06:32:57;99638.28;;;16.10;100.00
19624;BME280;9959;49.798;9.928;2022-08-21T06:35:25;99634.59;;;16.22;100.00
19624;BME280;9959;49.798;9.928;2022-08-21T06:37:57;99638.91;;;16.28;100.00
19624;BME280;9959;49.798;9.928;2022-08-21T06:40:25;99640.81;;;16.38;100.00
19624;BME280;9959;49.798;9.928;2022-08-21T06:42:56;99642.44;;;16.44;100.00
19624;BME280;9959;49.798;9.928;2022-08-21T06:45:26;99640.88;;;16.53;100.00
19624;BME280;9959;49.798;9.928;2022-08-21T06:47:58;99645.16;;;16.54;100.00
19624;BME280;9959;49.798;9.928;2022-08-21T06:50:26;99641.19;;;16.62;100.00
19624;BME280;9959;49.798;9.928;2022-08-21T06:53:03;99635.91;;;16.72;100.00
19624;BME280;9959;49.798;9.928;2022-08-21T06:55:31;99638.38;;;16.84;87.93
19624;BME280;9959;49.798;9.928;2022-08-21T06:58:00;99626.94;;;16.89;100.00
19624;BME280;9959;49.798;9.928;2022-08-21T07:00:28;99637.41;;;17.16;100.00
19624;BME280;9959;49.798;9.928;2022-08-21T07:02:57;99643.00;;;17.25;nan
19624;BME280;9959;49.798;9.928;2022-08-21T07:05:26;99638.25;;;17.47;100.00
19624;BME280;9959;49.798;9.928;2022-08-21T07:07:54;99642.75;;;17.57;100.00
19624;BME280;9959;49.798;9.928;2022-08-21T07:10:25;99633.47;;;17.65;nan
19624;BME280;9959;49.798;9.928;2022-08-21T07:12:53;99637.97;;;17.80;100.00
19624;BME280;9959;49.798;9.928;2022-08-21T07:15:27;99631.56;;;18.01;100.00
19624;BME280;9959;49.798;9.928;2022-08-21T07:17:56;99636.34;;;18.20;100.00
19624;BME280;9959;49.798;9.928;2022-08-21T07:20:25;99639.50;;;18.43;nan
19624;BME280;9959;49.798;9.928;2022-08-21T07:22:53;99641.63;;;18.46;100.00
19624;BME280;9959;49.798;9.928;2022-08-21T07:25:21;99639.63;;;18.72;100.00
19624;BME280;9959;49.798;9.928;2022-08-21T07:27:51;99635.31;;;18.92;100.00
19624;BME280;9959;49.798;9.928;2022-08-21T07:30:21;99631.66;;;19.22;88.19
19624;BME280;9959;49.798;9.928;2022-08-21T07:32:53;99634.19;;;19.42;93.99
19624;BME280;9959;49.798;9.928;2022-08-21T07:35:21;99633.69;;;19.35;100.00
19624;BME280;9959;49.798;9.928;2022-08-21T07:37:50;99637.31;;;19.55;83.88
19624;BME280;9959;49.798;9.928;2022-08-21T07:40:18;99628.72;;;19.58;nan
19624;BME280;9959;49.798;9.928;2022-08-21T07:42:47;99623.38;;;19.58;83.89
19624;BME280;9959;49.798;9.928;2022-08-21T07:45:21;99619.09;;;19.57;82.80
19624;BME280;9959;49.798;9.928;2022-08-21T07:47:50;99620.44;;;19.89;88.26
19624;BME280;9959;49.798;9.928;2022-08-21T07:50:24;99615.63;;;20.15;88.29
19624;BME280;9959;49.798;9.928;2022-08-21T07:52:52;99616.31;;;20.26;100.00
19624;BME280;9959;49.798;9.928;2022-08-21T07:55:22;99614.59;;;20.59;100.00
19624;BME280;9959;49.798;9.928;2022-08-21T07:57:51;99603.22;;;20.92;100.00
19624;BME280;9959;49.798;9.928;2022-08-21T08:00:22;99602.59;;;21.33;100.00
19624;BME280;9959;49.798;9.928;2022-08-21T08:02:52;99610.47;;;21.43;82.79
19624;BME280;9959;49.798;9.928;2022-08-21T08:05:22;99605.00;;;21.68;100.00
19624;BME280;9959;49.798;9.928;2022-08-21T08:07:50;99604.22;;;22.42;100.00
19624;BME280;9959;49.798;9.928;2022-08-21T08:10:19;99597.88;;;22.74;100.00
19624;BME280;9959;49.798;9.928;2022-08-21T08:12:48;99602.66;;;23.36;100.00
19624;BME280;9959;49.798;9.928;2022-08-21T08:15:24;99592.31;;;23.84;100.00
19624;BME280;9959;49.798;9.928;2022-08-21T08:17:53;99589.91;;;23.73;100.00
19624;BME280;9959;49.798;9.928;2022-08-21T08:20:21;99594.66;;;23.77;100.00
19624;BME280;9959;49.798;9.928;2022-08-21T08:22:51;99597.50;;;23.94;100.00
19624;BME280;9959;49.798;9.928;2022-08-21T08:25:20;99593.47;;;24.23;100.00
19624;BME280;9959;49.798;9.928;2022-08-21T08:27:49;99593.59;;;24.84;84.41
19624;BME280;9959;49.798;9.928;2022-08-21T08:30:19;99584.88;;;24.87;nan
19624;BME280;9959;49.798;9.928;2022-08-21T08:32:48;99582.59;;;25.51;100.00
19624;BME280;9959;49.798;9.928;2022-08-21T08:35:16;99585.03;;;25.82;100.00
19624;BME280;9959;49.798;9.928;2022-08-21T08:37:49;99584.88;;;24.79;100.00
19624;BME280;9959;49.798;9.928;2022-08-21T08:40:21;99590.16;;;25.75;nan
19624;BME280;9959;49.798;9.928;2022-08-21T08:42:51;99584.34;;;25.47;100.00
19624;BME280;9959;49.798;9.928;2022-08-21T08:45:22;99578.34;;;25.88;100.00
19624;BME280;9959;49.798;9.928;2022-08-21T08:47:53;99574.94;;;26.39;100.00
19624;BME280;9959;49.798;9.928;2022-08-21T08:50:38;99579.84;;;26.66;94.85
19624;BME280;9959;49.798;9.928;2022-08-21T08:53:12;99571.94;;;26.61;100.00
19624;BME280;9959;49.798;9.928;2022-08-21T08:55:45;99580.28;;;28.27;84.73
19624;BME280;9959;49.798;9.928;2022-08-21T08:58:18;99575.19;;;26.46;83.13
19624;BME280;9959;49.798;9.928;2022-08-21T09:00:51;99580.63;;;27.43;100.00
19624;BME280;9959;49.798;9.928;2022-08-21T09:03:21;99577.78;;;26.12;88.94
19624;BME280;9959;49.798;9.928;2022-08-21T09:05:55;99573.16;;;26.13;83.80
19624;BME280;9959;49.798;9.928;2022-08-21T09:08:41;99576.03;;;27.56;100.00
19624;BME280;9959;49.798;9.928;2022-08-21T09:11:18;99581.59;;;27.59;100.00
19624;BME280;9959;49.798;9.928;2022-08-21T09:13:57;99571.03;;;28.16;nan
19624;BME280;9959;49.798;9.928;2022-08-21T09:16:38;99573.56;;;27.63;100.00
19624;BME280;9959;49.798;9.928;2022-08-21T09:19:18;99567.19;;;28.17;83.34
19624;BME280;9959;49.798;9.928;2022-08-21T09:21:57;99564.91;;;28.44;83.46
19624;BME280;9959;49.798;9.928;2022-08-21T09:24:31;99561.78;;;28.17;100.00
19624;BME280;9959;49.798;9.928;2022-08-21T09:27:05;99560.66;;;27.35;89.06
19624;BME280;9959;49.798;9.928;2022-08-21T09:29:36;99556.47;;;28.73;nan
19624;BME280;9959;49.798;9.928;2022-08-21T09:32:13;99564.81;;;28.28;100.00
19624;BME280;9959;49.798;9.928;2022-08-21T09:34:56;99557.19;;;27.47;nan
19624;BME280;9959;49.798;9.928;2022-08-21T09:37:25;99554.09;;;27.82;nan
19624;BME280;9959;49.798;9.928;2022-08-21T09:39:56;99553.38;;;28.47;100.00
19624;BME280;9959;49.798;9.928;2022-08-21T09:42:27;99552.25;;;28.88;100.00
19624;BME280;9959;49.798;9.928;2022-08-21T09:45:11;99552.09;;;28.03;100.00
19624;BME280;9959;49.798;9.928;2022-08-21T09:47:42;99544.28;;;28.55;100.00
19624;BME280;9959;49.798;9.928;2022-08-21T09:50:14;99543.75;;;28.62;100.00
19624;BME280;9959;49.798;9.928;2022-08-21T09:52:45;99548.69;;;29.29;100.00
19624;BME280;9959;49.798;9.928;2022-08-21T09:55:23;99552.66;;;28.09;100.00
19624;BME280;9959;49.798;9.928;2022-08-21T09:58:11;99544.16;;;29.65;100.00
19624;BME280;9959;49.798;9.928;2022-08-21T10:00:39;99542.56;;;29.96;100.00
19624;BME280;9959;49.798;9.928;2022-08-21T10:03:11;99538.25;;;29.79;100.00
19624;BME280;9959;49.798;9.928;2022-08-21T10:05:39;99543.25;;;28.72;100.00
19624;BME280;9959;49.798;9.928;2022-08-21T10:08:17;99543.66;;;28.46;100.00
19624;BME280;9959;49.798;9.928;2022-08-21T10:10:45;99533.44;;;28.55;100.00
19624;BME280;9959;49.798;9.928;2022-08-21T10:13:27;99525.81;;;29.77;100.00
19624;BME280;9959;49.798;9.928;2022-08-21T10:16:07;99526.66;;;29.18;100.00
19624;BME280;9959;49.798;9.928;2022-08-21T10:18:40;99532.47;;;28.88;100.00
19624;BME280;9959;49.798;9.928;2022-08-21T10:21:16;99531.53;;;28.02;100.00
19624;BME280;9959;49.798;9.928;2022-08-21T10:23:54;99524.06;;;29.21;100.00
19624;BME280;9959;49.798;9.928;2022-08-21T10:26:32;99515.06;;;28.89;100.00
19624;BME280;9959;49.798;9.928;2022-08-21T10:29:21;99519.25;;;29.31;100.00
19624;BME280;9959;49.798;9.928;2022-08-21T10:31:57;99514.59;;;28.46;100.00
19624;BME280;9959;49.798;9.928;2022-08-21T10:34:55;99512.66;;;27.69;100.00
19624;BME280;9959;49.798;9.928;2022-08-21T10:37:34;99508.78;;;28.32;nan
19624;BME280;9959;49.798;9.928;2022-08-21T10:40:13;99514.84;;;28.82;100.00
19624;BME280;9959;49.798;9.928;2022-08-21T10:42:52;99511.41;;;28.56;100.00
19624;BME280;9959;49.798;9.928;2022-08-21T10:45:32;99505.00;;;28.61;100.00
19624;BME280;9959;49.798;9.928;2022-08-21T10:48:05;99506.25;;;29.08;100.00
19624;BME280;9959;49.798;9.928;2022-08-21T10:50:42;99508.81;;;29.33;nan
19624;BME280;9959;49.798;9.928;2022-08-21T10:53:19;99509.69;;;29.69;100.00
19624;BME280;9959;49.798;9.928;2022-08-21T10:55:54;99499.16;;;29.03;100.00
19624;BME280;9959;49.798;9.928;2022-08-21T10:58:28;99498.03;;;30.75;86.45
19624;BME280;9959;49.798;9.928;2022-08-21T11:01:00;99501.00;;;30.89;100.00
19624;BME280;9959;49.798;9.928;2022-08-21T11:03:33;99501.53;;;30.56;100.00
19624;BME280;9959;49.798;9.928;2022-08-21T11:06:10;99497.69;;;30.21;100.00
19624;BME280;9959;49.798;9.928;2022-08-21T11:08:40;99498.34;;;31.12;85.01
19624;BME280;9959;49.798;9.928;2022-08-21T11:11:17;99495.28;;;30.36;100.00
19624;BME280;9959;49.798;9.928;2022-08-21T11:13:50;99491.72;;;28.31;100.00
19624;BME280;9959;49.798;9.928;2022-08-21T11:16:25;99486.16;;;28.40;89.17
19624;BME280;9959;49.798;9.928;2022-08-21T11:18:58;99491.69;;;27.66;100.00
19624;BME280;9959;49.798;9.928;2022-08-21T11:21:35;99491.34;;;27.67;100.00
19624;BME280;9959;49.798;9.928;2022-08-21T11:24:17;99491.06;;;27.97;100.00
19624;BME280;9959;49.798;9.928;2022-08-21T11:26:52;99491.66;;;27.78;100.00
19624;BME280;9959;49.798;9.928;2022-08-21T11:29:25;99481.66;;;29.49;100.00
19624;BME280;9959;49.798;9.928;2022-08-21T11:32:15;99481.34;;;29.50;100.00
19624;BME280;9959;49.798;9.928;2022-08-21T11:34:54;99481.94;;;27.90;100.00
19624;BME280;9959;49.798;9.928;2022-08-21T11:37:42;99478.13;;;27.08;100.00
19624;BME280;9959;49.798;9.928;2022-08-21T11:40:17;99473.28;;;26.46;100.00
19624;BME280;9959;49.798;9.928;2022-08-21T11:42:55;99468.91;;;27.21;100.00
19624;BME280;9959;49.798;9.928;2022-08-21T11:45:33;99465.97;;;27.02;100.00
19624;BME280;9959;49.798;9.928;2022-08-21T11:48:12;99471.22;;;28.06;100.00
19624;BME280;9959;49.798;9.928;2022-08-21T11:50:44;99464.47;;;28.97;100.00
19624;BME280;9959;49.798;9.928;2022-08-21T11:53:19;99464.63;;;30.19;100.00
19624;BME280;9959;49.798;9.928;2022-08-21T11:55:53;99462.34;;;30.21;100.00
19624;BME280;9959;49.798;9.928;2022-08-21T11:58:25;99449.97;;;32.09;100.00
19624;BME280;9959;49.798;9.928;2022-08-21T12:00:58;99454.09;;;32.60;nan
19624;BME280;9959;49.798;9.928;2022-08-21T12:03:29;99458.78;;;31.69;100.00
19624;BME280;9959;49.798;9.928;2022-08-21T12:06:01;99462.00;;;30.82;100.00
19624;BME280;9959;49.798;9.928;2022-08-21T12:08:33;99453.16;;;30.46;100.00
19624;BME280;9959;49.798;9.928;2022-08-21T12:11:05;99449.06;;;29.17;100.00
19624;BME280;9959;49.798;9.928;2022-08-21T12:13:37;99447.47;;;28.84;nan
19624;BME280;9959;49.798;9.928;2022-08-21T12:16:10;99447.91;;;28.58;100.00
19624;BME280;9959;49.798;9.928;2022-08-21T12:18:39;99450.34;;;28.47;83.28
19624;BME280;9959;49.798;9.928;2022-08-21T12:21:20;99448.34;;;28.31;100.00
19624;BME280;9959;49.798;9.928;2022-08-21T12:24:01;99442.59;;;27.67;100.00
19624;BME280;9959;49.798;9.928;2022-08-21T12:26:33;99446.88;;;29.06;100.00
19624;BME280;9959;49.798;9.928;2022-08-21T12:29:10;99436.50;;;29.76;100.00
19624;BME280;9959;49.798;9.928;2022-08-21T12:31:52;99438.81;;;30.29;100.00
19624;BME280;9959;49.798;9.928;2022-08-21T12:34:23;99438.66;;;31.27;95.40
19624;BME280;9959;49.798;9.928;2022-08-21T12:36:56;99431.03;;;30.47;100.00
19624;BME280;9959;49.798;9.928;2022-08-21T12:39:27;99431.91;;;29.96;100.00
19624;BME280;9959;49.798;9.928;2022-08-21T12:42:00;99442.59;;;29.69;100.00
19624;BME280;9959;49.798;9.928;2022-08-21T12:44:34;99431.75;;;29.21;100.00
19624;BME280;9959;49.798;9.928;2022-08-21T12:47:06;99432.69;;;28.81;100.00
19624;BME280;9959;49.798;9.928;2022-08-21T12:49:36;99425.94;;;28.47;100.00
19624;BME280;9959;49.798;9.928;2022-08-21T12:52:11;99412.94;;;28.12;100.00
19624;BME280;9959;49.798;9.928;2022-08-21T12:54:43;99420.34;;;28.55;100.00
19624;BME280;9959;49.798;9.928;2022-08-21T12:57:19;99408.88;;;29.38;100.00
19624;BME280;9959;49.798;9.928;2022-08-21T12:59:55;99418.69;;;30.73;100.00
19624;BME280;9959;49.798;9.928;2022-08-21T13:02:25;99415.25;;;30.76;89.41
19624;BME280;9959;49.798;9.928;2022-08-21T13:04:54;99419.94;;;31.75;83.59
19624;BME280;9959;49.798;9.928;2022-08-21T13:07:27;99406.06;;;31.88;100.00
19624;BME280;9959;49.798;9.928;2022-08-21T13:10:01;99407.41;;;33.14;100.00
19624;BME280;9959;49.798;9.928;2022-08-21T13:12:31;99411.91;;;33.40;nan
19624;BME280;9959;49.798;9.928;2022-08-21T13:15:03;99411.94;;;32.95;100.00
19624;BME280;9959;49.798;9.928;2022-08-21T13:17:37;99409.81;;;31.76;85.07
19624;BME280;9959;49.798;9.928;2022-08-21T13:20:08;99413.09;;;31.58;100.00
19624;BME280;9959;49.798;9.928;2022-08-21T13:22:40;99405.25;;;31.83;100.00
19624;BME280;9959;49.798;9.928;2022-08-21T13:25:13;99408.34;;;31.28;83.58
19624;BME280;9959;49.798;9.928;2022-08-21T13:27:43;99411.44;;;31.04;nan